1875 Hurricane NOT_NAMED (1875277N19297)


IBTrACS version v04r00. Visit IBTrACS website for data access.
Please direct all questions to the IBTrACS Q and A forum

Storm track - Intensity - Wind Radii - Intensity Data - Source Data - All data

Summary Information

Storm ID 1875277N19297
Start Oct 4 06Z
Max Intensity 70 kt (Oct 10 06Z)
End Oct 11 06Z
ATCF IDs
Track status Best track data.

Storm track plot

Map of storm track

Intensity plots

Map of storm track

Radial wind information

No radial wind information for this storm


Position and Intensity Table

BASIN ISO_TIME_________ NATURE LAT LON MLC WIND
degrees north degrees east kts
NA 1875-10-04 06:00:00 TS 18.80 -63.20 30
NA 09:00:00 TS 18.95 -63.70 30
NA 12:00:00 TS 19.10 -64.20 30
NA 15:00:00 TS 19.25 -64.70 30
NA 18:00:00 TS 19.40 -65.20 30
NA 21:00:00 TS 19.56 -65.70 30
NA 1875-10-05 00:00:00 TS 19.70 -66.20 30
NA 03:00:00 TS 19.77 -66.69 32
NA 06:00:00 TS 19.90 -67.20 35
NA 09:00:00 TS 20.22 -67.75 37
NA 12:00:00 TS 20.60 -68.30 40
NA 15:00:00 TS 20.90 -68.82 42
NA 18:00:00 TS 21.20 -69.30 45
NA 21:00:00 TS 21.55 -69.74 50
NA 1875-10-06 00:00:00 TS 21.90 -70.10 55
NA 03:00:00 TS 22.19 -70.39 57
NA 06:00:00 TS 22.50 -70.60 60
NA 09:00:00 TS 22.88 -70.78 62
NA 12:00:00 TS 23.30 -70.90 65
NA 15:00:00 TS 23.70 -70.99 65
NA 18:00:00 TS 24.10 -71.00 65
NA 21:00:00 TS 24.50 -70.94 65
NA 1875-10-07 00:00:00 TS 24.90 -70.80 65
NA 03:00:00 TS 25.29 -70.58 65
NA 06:00:00 TS 25.70 -70.30 65
NA 09:00:00 TS 26.13 -70.01 65
NA 12:00:00 TS 26.60 -69.70 65
NA 15:00:00 TS 27.09 -69.38 65
NA 18:00:00 TS 27.60 -69.00 65
NA 21:00:00 TS 28.10 -68.51 65
NA 1875-10-08 00:00:00 TS 28.60 -68.00 65
NA 03:00:00 TS 29.10 -67.55 65
NA 06:00:00 TS 29.60 -67.10 65
NA 09:00:00 TS 30.10 -66.60 65
NA 12:00:00 TS 30.60 -66.10 65
NA 15:00:00 TS 31.10 -65.65 65
NA 18:00:00 TS 31.60 -65.20 65
NA 21:00:00 TS 32.11 -64.71 65
NA 1875-10-09 00:00:00 TS 32.60 -64.20 65
NA 03:00:00 TS 33.01 -63.68 65
NA 06:00:00 TS 33.40 -63.20 65
NA 09:00:00 TS 33.84 -62.77 65
NA 12:00:00 TS 34.30 -62.40 65
NA 15:00:00 TS 34.75 -62.08 65
NA 18:00:00 TS 35.20 -61.80 65
NA 21:00:00 TS 35.65 -61.47 65
NA 1875-10-10 00:00:00 TS 36.10 -61.20 65
NA 03:00:00 TS 36.47 -61.08 67
NA 06:00:00 ET 37.00 -61.00 70
NA 09:00:00 ET 37.92 -60.79 70
NA 12:00:00 ET 39.00 -60.60 70
NA 15:00:00 ET 40.00 -60.55 70
NA 18:00:00 ET 41.00 -60.60 70
NA 21:00:00 ET 42.00 -60.63 70
NA 1875-10-11 00:00:00 ET 43.00 -60.80 70
NA 03:00:00 ET 44.00 -61.22 70
NA 06:00:00 ET 45.00 -61.80 70

Source Information

Agency Information
USA
TOKYO
CMA
HKO
NEWDELHI
REUNION
BOM
NADI
WELLINGTON
DS824
TD9636
TD9635
NEUMANN
MLC

All available IBTrACS Data

SEASON BASIN SUBBASIN ISO_TIME_________ NATURE LAT LON DIST2LAND LANDFALL IFLAG USA SSHS MLC LAT MLC LON MLC CLASS MLC WIND STORM SPEED STORM DIR
Year degrees north degrees east km km 1 degrees north degrees east kts kts degrees
1875 NA CS 1875-10-04 06:00:00 TS 18.80 -63.20 256 207 _____________O -1 18.80 -63.20 TD 30 10 288
1875 NA CS 09:00:00 TS 18.95 -63.70 211 166 _____________P -1 18.95 -63.70 TD 30 10 288
1875 NA NA 12:00:00 TS 19.10 -64.20 166 130 _____________O -1 19.10 -64.20 TD 30 10 288
1875 NA NA 15:00:00 TS 19.25 -64.70 130 118 _____________P -1 19.25 -64.70 TD 30 10 288
1875 NA NA 18:00:00 TS 19.40 -65.20 119 116 _____________O -1 19.40 -65.20 TD 30 10 288
1875 NA NA 21:00:00 TS 19.56 -65.70 134 134 _____________P -1 19.56 -65.70 TD 30 10 288
1875 NA NA 1875-10-05 00:00:00 TS 19.70 -66.20 145 145 _____________O -1 19.70 -66.20 TD 30 10 283
1875 NA NA 03:00:00 TS 19.77 -66.69 156 156 _____________P -1 19.77 -66.69 TD 32 10 282
1875 NA NA 06:00:00 TS 19.90 -67.20 167 167 _____________O -1 19.90 -67.20 TS 35 11 294
1875 NA NA 09:00:00 TS 20.22 -67.75 182 175 _____________P -1 20.22 -67.75 TS 37 13 304
1875 NA NA 12:00:00 TS 20.60 -68.30 179 173 _____________O -1 20.60 -68.30 TS 40 12 304
1875 NA NA 15:00:00 TS 20.90 -68.82 186 182 _____________P -1 20.90 -68.82 TS 42 11 303
1875 NA NA 18:00:00 TS 21.20 -69.30 193 189 _____________O -1 21.20 -69.30 TS 45 11 307
1875 NA NA 21:00:00 TS 21.55 -69.74 211 211 _____________P -1 21.55 -69.74 TS 50 10 313
1875 NA NA 1875-10-06 00:00:00 TS 21.90 -70.10 240 240 _____________O -1 21.90 -70.10 TS 55 9 317
1875 NA NA 03:00:00 TS 22.19 -70.39 269 269 _____________P -1 22.19 -70.39 TS 57 8 322
1875 NA NA 06:00:00 TS 22.50 -70.60 287 284 _____________O -1 22.50 -70.60 TS 60 8 332
1875 NA NA 09:00:00 TS 22.88 -70.78 295 295 _____________P -1 22.88 -70.78 TS 62 9 341
1875 NA NA 12:00:00 TS 23.30 -70.90 319 319 _____________O -1 23.30 -70.90 HU 65 8 347
1875 NA NA 15:00:00 TS 23.70 -70.99 346 346 _____________P -1 23.70 -70.99 HU 65 8 354
1875 NA NA 18:00:00 TS 24.10 -71.00 383 383 _____________O -1 24.10 -71.00 HU 65 8 3
1875 NA NA 21:00:00 TS 24.50 -70.94 426 426 _____________P -1 24.50 -70.94 HU 65 8 13
1875 NA NA 1875-10-07 00:00:00 TS 24.90 -70.80 470 470 _____________O -1 24.90 -70.80 HU 65 9 23
1875 NA NA 03:00:00 TS 25.29 -70.58 519 519 _____________P -1 25.29 -70.58 HU 65 9 30
1875 NA NA 06:00:00 TS 25.70 -70.30 573 573 _____________O -1 25.70 -70.30 HU 65 10 31
1875 NA NA 09:00:00 TS 26.13 -70.01 626 626 _____________P -1 26.13 -70.01 HU 65 11 31
1875 NA NA 12:00:00 TS 26.60 -69.70 690 690 _____________O -1 26.60 -69.70 HU 65 11 31
1875 NA NA 15:00:00 TS 27.09 -69.38 753 753 _____________P -1 27.09 -69.38 HU 65 12 32
1875 NA NA 18:00:00 TS 27.60 -69.00 821 821 _____________O -1 27.60 -69.00 HU 65 13 37
1875 NA NA 21:00:00 TS 28.10 -68.51 894 894 _____________P -1 28.10 -68.51 HU 65 13 41
1875 NA NA 1875-10-08 00:00:00 TS 28.60 -68.00 967 967 _____________O -1 28.60 -68.00 HU 65 13 40
1875 NA NA 03:00:00 TS 29.10 -67.55 1041 1041 _____________P -1 29.10 -67.55 HU 65 13 38
1875 NA NA 06:00:00 TS 29.60 -67.10 1044 1043 _____________O -1 29.60 -67.10 HU 65 13 40
1875 NA NA 09:00:00 TS 30.10 -66.60 1043 1043 _____________P -1 30.10 -66.60 HU 65 13 41
1875 NA NA 12:00:00 TS 30.60 -66.10 1047 1045 _____________O -1 30.60 -66.10 HU 65 13 39
1875 NA NA 15:00:00 TS 31.10 -65.65 1055 1049 _____________P -1 31.10 -65.65 HU 65 13 38
1875 NA NA 18:00:00 TS 31.60 -65.20 1059 1059 _____________O -1 31.60 -65.20 HU 65 13 38
1875 NA NA 21:00:00 TS 32.11 -64.71 1075 1070 _____________P -1 32.11 -64.71 HU 65 13 40
1875 NA NA 1875-10-09 00:00:00 TS 32.60 -64.20 1095 1095 _____________O -1 32.60 -64.20 HU 65 12 44
1875 NA NA 03:00:00 TS 33.01 -63.68 1116 1095 _____________P -1 33.01 -63.68 HU 65 12 46
1875 NA NA 06:00:00 TS 33.40 -63.20 1100 1081 _____________O -1 33.40 -63.20 HU 65 11 42
1875 NA NA 09:00:00 TS 33.84 -62.77 1081 1054 _____________P -1 33.84 -62.77 HU 65 11 36
1875 NA NA 12:00:00 TS 34.30 -62.40 1054 1015 _____________O -1 34.30 -62.40 HU 65 11 32
1875 NA NA 15:00:00 TS 34.75 -62.08 1017 971 _____________P -1 34.75 -62.08 HU 65 10 29
1875 NA NA 18:00:00 TS 35.20 -61.80 971 937 _____________O -1 35.20 -61.80 HU 65 10 29
1875 NA NA 21:00:00 TS 35.65 -61.47 926 894 _____________P -1 35.65 -61.47 HU 65 10 28
1875 NA NA 1875-10-10 00:00:00 TS 36.10 -61.20 894 866 _____________O -1 36.10 -61.20 HU 65 9 21
1875 NA NA 03:00:00 TS 36.47 -61.08 856 809 _____________P -1 36.47 -61.08 HU 67 9 10
1875 NA NA 06:00:00 ET 37.00 -61.00 809 728 _____________O -1 37.00 -61.00 EX 70 15 9
1875 NA NA 09:00:00 ET 37.92 -60.79 728 644 _____________P -1 37.92 -60.79 EX 70 20 9
1875 NA NA 12:00:00 ET 39.00 -60.60 635 555 _____________O -1 39.00 -60.60 EX 70 21 5
1875 NA NA 15:00:00 ET 40.00 -60.55 546 458 _____________P -1 40.00 -60.55 EX 70 20 0
1875 NA NA 18:00:00 ET 41.00 -60.60 448 356 _____________O -1 41.00 -60.60 EX 70 20 358
1875 NA NA 21:00:00 ET 42.00 -60.63 346 249 _____________P -1 42.00 -60.63 EX 70 20 356
1875 NA NA 1875-10-11 00:00:00 ET 43.00 -60.80 238 134 _____________O -1 43.00 -60.80 EX 70 20 348
1875 NA NA 03:00:00 ET 44.00 -61.22 124 13 _____________P -1 44.00 -61.22 EX 70 21 340
1875 NA NA 06:00:00 ET 45.00 -61.80 7 _____________O -1 45.00 -61.80 EX 70 22 338